Fortuna, Missouri
Current Conditions -  °F | °C
As of 3:01 PM on Sunday 21 Dec 2014 (Local Time) from KDMO Reporting Station
Overcast Overcast  
Wind Chill: 38°   Ceiling: 1700
Heat Index: 45°   Visibility: 10mi
Dew Point: 39°   Wind: 15mph
Humidity: 80%   Direction: 160°SSE
Pressure: 29.91"   Gusts: NA
Location:  38.57°N, 92.8°W
Report Text: KDMO 212101Z AUTO 16013KT 10SM OVC017 07/04 A2991 RMK AO2 T00720039
Loading
Personal Weather Stations






























Interactive Weather Map New forecast layout! Learn more

10-Day Weather Forecast

Advertisements
Track Severe Weather on mobile